Time;durP1;ratioP1;P1;durP2;ratioP2;P2;SDS_P1;SDS_P2;PMS_P1;PMS_P2;Temp;Humidity;BMP_temperature;BMP_pressure;BME280_temperature;BME280_humidity;BME280_pressure;Samples;Min_cycle;Max_cycle;Signal;HPM_P1;HPM_P2
2021/07/11 00:04:12;;;;;;;11.70;10.55;;;;;;;;;;10593931;28;20043;-84
2021/07/11 00:09:13;;;;;;;10.05;9.05;;;;;;;;;;10593260;28;20031;-85
2021/07/11 00:14:15;;;;;;;10.95;9.85;;;;;;;;;;10592887;28;20443;-85
2021/07/11 00:19:16;;;;;;;7.35;6.63;;;;;;;;;;10596709;28;20078;-85
2021/07/11 00:24:20;;;;;;;12.98;11.77;;;;;;;;;;10593076;28;20032;-85
2021/07/11 00:29:24;;;;;;;12.18;10.93;;;;;;;;;;10592542;28;20032;-85
2021/07/11 00:34:26;;;;;;;11.27;10.27;;;;;;;;;;10591385;28;20032;-84
2021/07/11 00:39:28;;;;;;;6.93;6.22;;;;;;;;;;10609885;28;20035;-85
2021/07/11 00:44:30;;;;;;;12.63;11.43;;;;;;;;;;10592213;28;20039;-85
2021/07/11 00:49:34;;;;;;;11.10;10.00;;;;;;;;;;10590545;28;20062;-85
2021/07/11 00:54:38;;;;;;;14.85;13.18;;;;;;;;;;10590372;28;20452;-85
2021/07/11 00:59:39;;;;;;;15.30;13.70;;;;;;;;;;10590932;28;20024;-85
2021/07/11 01:05:02;;;;;;;15.30;13.70;;;;;;;;;;10590120;28;20047;-85
2021/07/11 01:10:05;;;;;;;17.63;15.82;;;;;;;;;;10590132;28;20103;-85
2021/07/11 01:15:07;;;;;;;14.15;12.52;;;;;;;;;;10589668;28;20099;-84
2021/07/11 01:20:13;;;;;;;14.95;13.45;;;;;;;;;;10589076;28;20028;-84
2021/07/11 01:25:24;;;;;;;13.02;11.73;;;;;;;;;;10589202;28;20043;-84
2021/07/11 01:30:26;;;;;;;9.98;8.98;;;;;;;;;;10589607;28;20077;-84
2021/07/11 01:35:27;;;;;;;10.32;9.43;;;;;;;;;;10590308;28;20032;-85
2021/07/11 01:40:29;;;;;;;7.38;6.65;;;;;;;;;;10589768;28;20158;-85
2021/07/11 01:45:30;;;;;;;7.20;6.57;;;;;;;;;;10590418;28;20030;-85
2021/07/11 01:50:31;;;;;;;7.70;7.00;;;;;;;;;;10591666;28;20046;-85
2021/07/11 01:55:32;;;;;;;9.02;8.23;;;;;;;;;;10591028;28;20074;-85
2021/07/11 02:00:33;;;;;;;6.15;5.57;;;;;;;;;;10590735;28;20043;-85
2021/07/11 02:05:34;;;;;;;7.38;6.70;;;;;;;;;;10589345;28;20040;-85
2021/07/11 02:10:36;;;;;;;6.22;5.07;;;;;;;;;;10589265;28;20076;-85
2021/07/11 02:15:38;;;;;;;6.10;5.50;;;;;;;;;;10589405;28;20031;-85
2021/07/11 02:20:39;;;;;;;8.68;7.57;;;;;;;;;;10587757;28;20493;-85
2021/07/11 02:25:40;;;;;;;6.22;5.63;;;;;;;;;;10588558;28;20028;-85
2021/07/11 02:30:51;;;;;;;7.50;6.80;;;;;;;;;;10587198;28;20034;-84
2021/07/11 02:35:52;;;;;;;7.97;7.18;;;;;;;;;;10588047;28;20024;-85
2021/07/11 02:40:59;;;;;;;7.53;6.80;;;;;;;;;;10588240;28;20031;-85
2021/07/11 02:46:01;;;;;;;6.90;6.30;;;;;;;;;;10587217;28;20027;-85
2021/07/11 02:51:02;;;;;;;8.05;7.35;;;;;;;;;;10588176;28;20097;-84
2021/07/11 02:56:03;;;;;;;8.25;7.38;;;;;;;;;;10605294;28;20043;-84
2021/07/11 03:01:05;;;;;;;8.00;7.25;;;;;;;;;;10604108;22;20051;-85
2021/07/11 03:06:06;;;;;;;6.45;5.72;;;;;;;;;;10544363;28;20100;-86
2021/07/11 03:11:07;;;;;;;8.75;7.85;;;;;;;;;;10545570;28;20405;-86
2021/07/11 03:16:08;;;;;;;7.07;6.38;;;;;;;;;;10550933;28;20051;-86
2021/07/11 03:21:09;;;;;;;9.40;8.05;;;;;;;;;;10551419;28;20486;-85
2021/07/11 03:26:10;;;;;;;12.52;11.30;;;;;;;;;;10550707;28;20047;-86
2021/07/11 03:31:12;;;;;;;11.77;10.57;;;;;;;;;;10550837;28;20504;-85
2021/07/11 03:36:15;;;;;;;7.28;6.57;;;;;;;;;;10552409;28;20035;-85
2021/07/11 03:41:18;;;;;;;10.25;9.25;;;;;;;;;;10552849;28;20039;-86
2021/07/11 03:46:20;;;;;;;9.02;7.93;;;;;;;;;;10553211;28;20104;-85
2021/07/11 03:51:25;;;;;;;10.13;9.13;;;;;;;;;;10551511;28;20040;-85
2021/07/11 03:56:27;;;;;;;12.60;10.93;;;;;;;;;;10551506;28;20028;-84
2021/07/11 04:01:30;;;;;;;10.98;9.82;;;;;;;;;;10550955;28;20040;-85
2021/07/11 04:06:32;;;;;;;9.95;8.77;;;;;;;;;;10549938;28;20040;-85
2021/07/11 04:11:34;;;;;;;9.35;8.15;;;;;;;;;;10549756;28;20032;-85
2021/07/11 04:16:36;;;;;;;9.63;8.13;;;;;;;;;;10549577;28;20030;-85
2021/07/11 04:21:37;;;;;;;12.60;11.30;;;;;;;;;;10548172;28;20086;-85
2021/07/11 04:26:39;;;;;;;15.15;13.52;;;;;;;;;;10548223;28;20031;-85
2021/07/11 04:31:40;;;;;;;19.48;16.05;;;;;;;;;;10548120;28;20440;-85
2021/07/11 04:36:41;;;;;;;12.82;11.45;;;;;;;;;;10548457;28;20059;-85
2021/07/11 04:41:43;;;;;;;16.52;14.73;;;;;;;;;;10548422;28;20043;-86
2021/07/11 04:46:44;;;;;;;15.85;14.25;;;;;;;;;;10547692;28;20032;-85
2021/07/11 04:51:45;;;;;;;15.23;13.68;;;;;;;;;;10540637;28;20043;-85
2021/07/11 04:56:58;;;;;;;12.93;11.63;;;;;;;;;;10540303;28;20043;-85
2021/07/11 05:01:59;;;;;;;10.43;9.40;;;;;;;;;;10542012;28;20040;-84
2021/07/11 05:07:00;;;;;;;10.75;9.75;;;;;;;;;;10558110;28;20040;-85
2021/07/11 05:12:01;;;;;;;13.07;11.90;;;;;;;;;;10539447;28;20091;-85
2021/07/11 05:17:02;;;;;;;12.73;11.52;;;;;;;;;;10541610;28;20028;-86
2021/07/11 05:22:03;;;;;;;12.82;11.45;;;;;;;;;;10546311;28;20036;-85
2021/07/11 05:27:04;;;;;;;13.98;12.57;;;;;;;;;;10545157;28;20036;-85
2021/07/11 05:32:06;;;;;;;15.27;13.77;;;;;;;;;;10545533;28;20047;-85
2021/07/11 05:37:06;;;;;;;9.88;8.88;;;;;;;;;;10547650;28;20135;-85
2021/07/11 05:42:07;;;;;;;15.60;14.00;;;;;;;;;;10565247;28;20039;-85
2021/07/11 05:47:08;;;;;;;10.60;9.65;;;;;;;;;;10542270;28;20581;-85
2021/07/11 05:52:09;;;;;;;16.65;15.15;;;;;;;;;;10540935;28;20040;-84
2021/07/11 05:57:12;;;;;;;12.65;11.55;;;;;;;;;;10524086;28;20051;-84
2021/07/11 06:02:13;;;;;;;14.88;13.48;;;;;;;;;;10559683;28;20051;-84
2021/07/11 06:07:14;;;;;;;12.43;11.23;;;;;;;;;;10542231;28;20040;-85
2021/07/11 06:12:16;;;;;;;13.38;11.75;;;;;;;;;;10541346;28;20058;-84
2021/07/11 06:17:16;;;;;;;12.68;11.48;;;;;;;;;;10540183;28;20123;-84
2021/07/11 06:22:17;;;;;;;13.00;11.80;;;;;;;;;;10540406;28;20448;-84
2021/07/11 06:27:18;;;;;;;9.13;8.23;;;;;;;;;;10540319;28;20078;-85
2021/07/11 06:32:19;;;;;;;10.18;9.27;;;;;;;;;;10539126;28;20062;-84
2021/07/11 06:37:20;;;;;;;13.02;11.93;;;;;;;;;;10536939;28;20544;-85
2021/07/11 06:42:21;;;;;;;10.77;9.80;;;;;;;;;;10536778;28;20044;-85
2021/07/11 06:47:22;;;;;;;16.20;14.70;;;;;;;;;;10544841;28;20032;-84
2021/07/11 06:52:23;;;;;;;12.93;11.73;;;;;;;;;;10566587;28;20075;-86
2021/07/11 06:57:24;;;;;;;14.93;13.52;;;;;;;;;;10548674;28;20041;-84
2021/07/11 07:02:25;;;;;;;17.75;16.05;;;;;;;;;;10551516;28;20096;-84
2021/07/11 07:07:26;;;;;;;15.52;14.13;;;;;;;;;;10553026;28;20043;-84
2021/07/11 07:12:27;;;;;;;14.77;13.45;;;;;;;;;;10554641;28;20028;-84
2021/07/11 07:17:28;;;;;;;12.75;11.45;;;;;;;;;;10554692;28;20032;-85
2021/07/11 07:22:29;;;;;;;32.53;29.23;;;;;;;;;;10557199;28;20404;-85
2021/07/11 07:27:30;;;;;;;20.23;18.17;;;;;;;;;;10565990;28;20043;-84
2021/07/11 07:32:31;;;;;;;26.52;23.65;;;;;;;;;;10573698;28;20043;-83
2021/07/11 07:37:32;;;;;;;22.48;19.92;;;;;;;;;;10572444;28;20055;-85
2021/07/11 07:42:33;;;;;;;37.78;33.65;;;;;;;;;;10549373;28;20036;-84
2021/07/11 07:47:34;;;;;;;24.83;21.80;;;;;;;;;;10550051;28;20028;-85
2021/07/11 07:52:35;;;;;;;23.02;20.52;;;;;;;;;;10567360;28;20032;-83
2021/07/11 07:57:49;;;;;;;18.70;16.90;;;;;;;;;;10547422;28;20040;-85
2021/07/11 08:02:52;;;;;;;20.30;18.20;;;;;;;;;;10547623;28;20051;-84
2021/07/11 08:07:53;;;;;;;20.40;18.33;;;;;;;;;;10543827;28;20029;-85
2021/07/11 08:12:54;;;;;;;18.90;17.05;;;;;;;;;;10546179;28;20040;-85
2021/07/11 08:17:55;;;;;;;26.58;23.83;;;;;;;;;;10552652;28;20074;-85
2021/07/11 08:22:58;;;;;;;28.45;25.58;;;;;;;;;;10553988;28;20078;-83
2021/07/11 08:27:59;;;;;;;23.77;21.33;;;;;;;;;;10552882;28;20024;-84
2021/07/11 08:33:00;;;;;;;30.27;26.98;;;;;;;;;;10550921;28;20032;-84
2021/07/11 08:38:01;;;;;;;24.73;22.23;;;;;;;;;;10546196;28;20040;-85
2021/07/11 08:43:06;;;;;;;23.80;21.40;;;;;;;;;;10547286;28;20099;-85
2021/07/11 08:48:08;;;;;;;29.45;26.33;;;;;;;;;;10544942;28;20036;-84
2021/07/11 08:53:14;;;;;;;30.00;26.00;;;;;;;;;;10544967;28;20043;-83
2021/07/11 08:58:15;;;;;;;36.90;32.40;;;;;;;;;;10531362;28;20028;-84
2021/07/11 09:03:16;;;;;;;39.03;34.17;;;;;;;;;;10553291;28;20428;-82
2021/07/11 09:08:24;;;;;;;31.27;27.95;;;;;;;;;;10572823;28;20476;-83
2021/07/11 09:13:26;;;;;;;29.08;24.88;;;;;;;;;;10555080;28;20038;-83
2021/07/11 09:18:35;;;;;;;38.70;34.65;;;;;;;;;;10554860;28;20370;-84
2021/07/11 09:23:36;;;;;;;;;;;;;;;;;;10555718;28;20039;-84
2021/07/11 09:28:38;;;;;;;37.63;33.72;;;;;;;;;;10553384;28;19904;-83
2021/07/11 09:33:40;;;;;;;36.10;32.35;;;;;;;;;;10553301;28;20044;-84
2021/07/11 09:38:41;;;;;;;39.08;35.00;;;;;;;;;;10554417;28;20039;-83
2021/07/11 09:43:43;;;;;;;27.77;24.90;;;;;;;;;;10551587;28;20066;-84
2021/07/11 09:48:44;;;;;;;30.83;27.58;;;;;;;;;;10553053;28;20066;-83
2021/07/11 09:53:45;;;;;;;27.42;24.70;;;;;;;;;;10551498;28;20036;-84
2021/07/11 09:58:54;;;;;;;29.73;26.70;;;;;;;;;;10554640;28;20032;-83
2021/07/11 10:03:55;;;;;;;;;;;;;;;;;;10552371;28;20121;-82
2021/07/11 10:08:56;;;;;;;22.30;20.10;;;;;;;;;;10555155;28;19904;-83
2021/07/11 10:13:58;;;;;;;20.65;18.67;;;;;;;;;;10553314;28;20032;-83
2021/07/11 10:19:01;;;;;;;26.88;24.17;;;;;;;;;;10554680;28;20032;-86
2021/07/11 10:24:02;;;;;;;26.67;23.75;;;;;;;;;;10561270;28;20032;-83
2021/07/11 10:29:10;;;;;;;21.35;19.15;;;;;;;;;;10561593;28;20078;-84
2021/07/11 10:34:11;;;;;;;24.38;21.83;;;;;;;;;;10560762;28;20036;-84
2021/07/11 10:39:14;;;;;;;21.35;19.17;;;;;;;;;;10555789;28;20066;-84
2021/07/11 10:44:21;;;;;;;25.77;23.08;;;;;;;;;;10559971;28;20032;-83
2021/07/11 10:49:24;;;;;;;26.60;23.67;;;;;;;;;;10555797;28;20032;-85
2021/07/11 10:54:34;;;;;;;20.60;18.60;;;;;;;;;;10557527;28;20028;-85
2021/07/11 10:59:36;;;;;;;26.30;23.67;;;;;;;;;;10554250;28;20040;-84
2021/07/11 11:04:37;;;;;;;22.67;20.30;;;;;;;;;;10572874;28;20032;-85
2021/07/11 11:09:41;;;;;;;22.40;20.35;;;;;;;;;;10579624;28;20020;-86
2021/07/11 11:14:49;;;;;;;19.27;17.42;;;;;;;;;;10576941;28;20062;-87
2021/07/11 11:19:50;;;;;;;20.73;18.75;;;;;;;;;;10566032;28;20043;-86
2021/07/11 11:24:51;;;;;;;17.08;15.55;;;;;;;;;;10564428;28;20418;-86
2021/07/11 11:29:52;;;;;;;17.50;15.90;;;;;;;;;;10577623;28;20054;-86
2021/07/11 11:34:53;;;;;;;19.42;17.55;;;;;;;;;;10577412;28;20050;-86
2021/07/11 11:40:01;;;;;;;16.50;14.93;;;;;;;;;;10571495;28;20142;-83
2021/07/11 11:45:08;;;;;;;15.27;13.68;;;;;;;;;;10559863;28;20070;-84
2021/07/11 11:50:17;;;;;;;15.77;14.27;;;;;;;;;;10562157;28;20047;-83
2021/07/11 11:55:17;;;;;;;;;;;;;;;;;;10559828;28;20036;-84
2021/07/11 12:00:19;;;;;;;18.13;16.42;;;;;;;;;;10558598;28;19912;-85
2021/07/11 12:05:21;;;;;;;18.08;16.35;;;;;;;;;;10554619;28;20044;-85
2021/07/11 12:10:22;;;;;;;18.30;16.60;;;;;;;;;;10552385;28;20085;-85
2021/07/11 12:15:34;;;;;;;21.98;19.88;;;;;;;;;;10552698;28;20028;-84
2021/07/11 12:20:37;;;;;;;19.33;17.52;;;;;;;;;;10553012;28;20036;-83
2021/07/11 12:25:41;;;;;;;20.98;18.92;;;;;;;;;;10554487;28;20024;-84
2021/07/11 12:30:44;;;;;;;17.13;15.52;;;;;;;;;;10551971;28;20047;-84
2021/07/11 12:35:46;;;;;;;18.83;16.98;;;;;;;;;;10554761;28;20028;-84
2021/07/11 12:40:55;;;;;;;18.92;17.23;;;;;;;;;;10549475;28;20410;-84
2021/07/11 12:46:16;;;;;;;18.48;16.77;;;;;;;;;;10549086;28;20107;-84
2021/07/11 12:51:17;;;;;;;17.08;15.48;;;;;;;;;;10547925;28;20526;-84
2021/07/11 12:56:19;;;;;;;16.58;15.05;;;;;;;;;;10547686;28;20136;-84
2021/07/11 13:01:26;;;;;;;21.25;19.05;;;;;;;;;;10550167;28;20054;-84
2021/07/11 13:06:31;;;;;;;20.45;18.55;;;;;;;;;;10549396;28;20506;-85
2021/07/11 13:11:33;;;;;;;17.85;16.17;;;;;;;;;;10548012;28;20043;-84
2021/07/11 13:16:35;;;;;;;18.30;16.70;;;;;;;;;;10546155;28;20032;-84
2021/07/11 13:21:36;;;;;;;19.50;17.55;;;;;;;;;;10546355;28;20036;-84
2021/07/11 13:26:37;;;;;;;19.90;18.00;;;;;;;;;;10546009;28;20032;-83
2021/07/11 13:31:38;;;;;;;18.13;16.50;;;;;;;;;;10547701;28;20040;-84
2021/07/11 13:36:39;;;;;;;19.73;17.83;;;;;;;;;;10551883;28;20036;-84
2021/07/11 13:41:40;;;;;;;14.93;13.63;;;;;;;;;;10553247;28;20057;-85
2021/07/11 13:46:41;;;;;;;16.77;15.23;;;;;;;;;;10552521;28;20039;-84
2021/07/11 13:51:42;;;;;;;16.02;14.57;;;;;;;;;;10554767;28;20040;-84
2021/07/11 13:56:43;;;;;;;13.02;11.95;;;;;;;;;;10555570;28;20016;-84
2021/07/11 14:01:44;;;;;;;13.77;12.55;;;;;;;;;;10554499;28;20036;-85
2021/07/11 14:06:45;;;;;;;14.98;13.68;;;;;;;;;;10552868;28;20032;-84
2021/07/11 14:11:46;;;;;;;15.13;13.80;;;;;;;;;;10555493;28;20100;-85
2021/07/11 14:16:47;;;;;;;17.38;15.85;;;;;;;;;;10555972;28;20037;-84
2021/07/11 14:21:48;;;;;;;13.57;12.30;;;;;;;;;;10580094;28;20059;-85
2021/07/11 14:26:49;;;;;;;16.33;14.68;;;;;;;;;;10561134;28;20043;-85
2021/07/11 14:31:50;;;;;;;15.20;13.70;;;;;;;;;;10559139;28;20055;-84
2021/07/11 14:36:51;;;;;;;15.25;13.75;;;;;;;;;;10556574;28;20040;-85
2021/07/11 14:41:53;;;;;;;18.75;17.05;;;;;;;;;;10554372;28;20095;-84
2021/07/11 14:46:54;;;;;;;16.40;14.82;;;;;;;;;;10554113;28;20040;-84
2021/07/11 14:51:55;;;;;;;14.00;12.70;;;;;;;;;;10554684;28;20036;-85
2021/07/11 14:56:55;;;;;;;14.88;13.50;;;;;;;;;;10559473;28;20035;-84
2021/07/11 15:01:56;;;;;;;15.60;14.20;;;;;;;;;;10550707;28;20048;-89
2021/07/11 15:06:57;;;;;;;14.30;13.00;;;;;;;;;;10531842;28;20066;-88
2021/07/11 15:11:58;;;;;;;16.33;14.88;;;;;;;;;;10555806;28;20024;-88
2021/07/11 15:16:59;;;;;;;23.30;21.15;;;;;;;;;;10577245;28;20047;-88
2021/07/11 15:22:04;;;;;;;12.77;11.60;;;;;;;;;;10554201;28;20474;-88
2021/07/11 15:27:06;;;;;;;11.60;10.60;;;;;;;;;;10535063;28;20127;-88
2021/07/11 15:32:10;;;;;;;11.77;10.77;;;;;;;;;;10534148;28;20036;-88
2021/07/11 15:37:11;;;;;;;10.15;9.35;;;;;;;;;;10550290;28;20031;-88
2021/07/11 15:42:12;;;;;;;10.10;9.20;;;;;;;;;;10531704;28;20131;-87
2021/07/11 15:47:12;;;;;;;12.98;11.82;;;;;;;;;;10531741;28;20085;-87
2021/07/11 15:52:14;;;;;;;11.80;10.80;;;;;;;;;;10531177;28;20028;-87
2021/07/11 15:57:15;;;;;;;12.48;11.38;;;;;;;;;;10549446;28;20063;-87
2021/07/11 16:02:16;;;;;;;13.30;12.07;;;;;;;;;;10548983;28;20040;-87
2021/07/11 16:07:17;;;;;;;9.80;9.00;;;;;;;;;;10532297;28;20103;-87
2021/07/11 16:12:18;;;;;;;10.30;9.40;;;;;;;;;;10549855;28;20036;-87
2021/07/11 16:17:19;;;;;;;9.70;8.90;;;;;;;;;;10531741;28;20437;-88
2021/07/11 16:22:20;;;;;;;11.85;10.85;;;;;;;;;;10530116;28;20038;-87
2021/07/11 16:27:21;;;;;;;10.90;9.90;;;;;;;;;;10547429;28;20070;-87
2021/07/11 16:32:22;;;;;;;13.32;12.18;;;;;;;;;;10532457;28;20401;-88
2021/07/11 16:37:23;;;;;;;11.77;10.77;;;;;;;;;;10529654;28;20028;-87
2021/07/11 16:42:24;;;;;;;10.48;9.65;;;;;;;;;;10531328;28;20040;-87
2021/07/11 16:47:25;;;;;;;12.50;11.38;;;;;;;;;;10550096;28;20032;-87
2021/07/11 16:52:26;;;;;;;11.88;10.88;;;;;;;;;;10528741;28;20032;-88
2021/07/11 16:57:27;;;;;;;9.95;9.10;;;;;;;;;;10546449;28;20028;-88
2021/07/11 17:02:28;;;;;;;9.63;8.82;;;;;;;;;;10551880;28;20044;-88
2021/07/11 17:07:29;;;;;;;11.85;10.68;;;;;;;;;;10560770;28;20032;-86
2021/07/11 17:12:30;;;;;;;8.98;8.27;;;;;;;;;;10571865;28;20047;-87
2021/07/11 17:17:31;;;;;;;10.32;9.43;;;;;;;;;;10559878;28;20036;-87
2021/07/11 17:22:32;;;;;;;9.73;8.93;;;;;;;;;;10546167;28;20043;-88
2021/07/11 17:27:33;;;;;;;10.88;9.98;;;;;;;;;;10530304;28;20463;-88
2021/07/11 17:32:34;;;;;;;7.43;6.82;;;;;;;;;;10530782;28;20036;-88
2021/07/11 17:37:35;;;;;;;9.48;8.65;;;;;;;;;;10527815;28;20070;-88
2021/07/11 17:42:37;;;;;;;9.10;8.20;;;;;;;;;;10526526;28;20085;-87
2021/07/11 17:47:38;;;;;;;8.00;7.30;;;;;;;;;;10531522;28;20504;-87
2021/07/11 17:52:38;;;;;;;8.10;7.43;;;;;;;;;;10533075;28;20079;-87
2021/07/11 17:57:40;;;;;;;7.40;6.70;;;;;;;;;;10533456;28;20059;-88
2021/07/11 18:02:41;;;;;;;7.70;7.00;;;;;;;;;;10533883;28;20051;-87
2021/07/11 18:07:43;;;;;;;6.75;6.15;;;;;;;;;;10533077;28;20099;-88
2021/07/11 18:12:45;;;;;;;6.43;5.93;;;;;;;;;;10532284;28;20069;-88
2021/07/11 18:17:47;;;;;;;5.80;5.40;;;;;;;;;;10529428;28;20039;-88
2021/07/11 18:22:48;;;;;;;5.80;5.30;;;;;;;;;;10530254;28;20036;-88
2021/07/11 18:27:49;;;;;;;6.00;5.50;;;;;;;;;;10532040;28;20063;-88
2021/07/11 18:32:50;;;;;;;5.35;4.85;;;;;;;;;;10532392;28;20062;-88
2021/07/11 18:37:51;;;;;;;5.18;4.78;;;;;;;;;;10530773;28;20031;-88
2021/07/11 18:42:52;;;;;;;4.18;3.63;;;;;;;;;;10538956;28;20036;-88
2021/07/11 18:47:53;;;;;;;4.65;4.25;;;;;;;;;;10539639;28;20036;-88
2021/07/11 18:52:54;;;;;;;4.60;4.20;;;;;;;;;;10558116;28;20024;-89
2021/07/11 18:57:55;;;;;;;4.15;3.80;;;;;;;;;;10576952;28;20031;-86
2021/07/11 19:02:56;;;;;;;3.97;3.67;;;;;;;;;;10560867;28;20044;-88
2021/07/11 19:07:58;;;;;;;3.90;3.60;;;;;;;;;;10536975;28;20028;-88
2021/07/11 19:12:59;;;;;;;3.42;3.13;;;;;;;;;;10538669;28;20040;-87
2021/07/11 19:18:00;;;;;;;3.90;3.60;;;;;;;;;;10558983;28;20100;-88
2021/07/11 19:23:01;;;;;;;3.80;3.50;;;;;;;;;;10563242;28;20250;-88
2021/07/11 19:28:09;;;;;;;3.65;3.30;;;;;;;;;;10556773;28;20036;-88
2021/07/11 19:33:11;;;;;;;4.10;3.13;;;;;;;;;;10555551;28;20036;-88
2021/07/11 19:38:12;;;;;;;3.90;3.60;;;;;;;;;;10546075;28;20032;-89
2021/07/11 19:43:13;;;;;;;3.40;3.10;;;;;;;;;;10544627;28;20056;-88
2021/07/11 19:48:14;;;;;;;3.70;3.40;;;;;;;;;;10573087;28;20039;-85
2021/07/11 19:53:15;;;;;;;3.60;3.30;;;;;;;;;;10553208;28;20085;-84
2021/07/11 19:58:16;;;;;;;3.65;3.35;;;;;;;;;;10553291;28;20143;-85
2021/07/11 20:03:20;;;;;;;3.60;3.30;;;;;;;;;;10552207;28;20024;-85
2021/07/11 20:08:21;;;;;;;3.78;3.47;;;;;;;;;;10556348;28;20038;-85
2021/07/11 20:13:22;;;;;;;3.90;3.47;;;;;;;;;;10558050;28;20036;-85
2021/07/11 20:18:23;;;;;;;3.75;3.45;;;;;;;;;;10557115;28;20032;-85
